Santiago de Cuba, Cuba
Current Conditions -  °F | °C
As of 12:51 AM on Wednesday 26 Nov 2014 (Local Time) from MUCU Reporting Station
Few Clouds Few Clouds  
Wind Chill: 77°   Ceiling: Unl
Heat Index: 78°   Visibility: 6mi
Dew Point: 72°   Wind: 5mph
Humidity: 83%   Direction: 60°ENE
Pressure: 30"   Gusts: NA
Location:  20.01°N, 75.82°W
Report Text: MUCU 260451Z 06004KT 9000 FEW020 25/22 Q1016
Loading
Personal Weather Stations






























Interactive Weather Map New forecast layout! Learn more

10-Day Weather Forecast

Advertisements
Track Severe Weather on mobile